South Chaplin, Connecticut
Current Conditions -  °F | °C
As of 12:52 PM on Tuesday 21 Oct 2014 (Local Time) from KIJD Reporting Station
Few Clouds Few Clouds  
Wind Chill: 19°   Ceiling: Unl
Heat Index: 19°   Visibility: 10mi
Dew Point:   Wind: 5mph
Humidity: 49%   Direction: NA
Pressure: 29.9"   Gusts: NA
Location:  41.7601°N, 72.123°W
Report Text: KIJD 211652Z AUTO VRB04KT 10SM FEW038 19/08 A2990 RMK AO2 SLP124 T01940083
Loading
Personal Weather Stations






























Interactive Weather Map
Tropical Storm Tracking
New forecast layout! Learn more

10-Day Weather Forecast

Advertisements
Track Severe Weather on mobile